createdAt,value
2022-10-02T00:00:34.268Z,13.07
2022-10-02T00:03:12.588Z,12.96
2022-10-02T00:05:48.755Z,12.90
2022-10-02T00:08:32.215Z,12.93
2022-10-02T00:11:09.306Z,13.05
2022-10-02T00:13:49.641Z,13.17
2022-10-02T00:16:25.905Z,13.12
2022-10-02T00:18:56.339Z,13.09
2022-10-02T00:21:40.799Z,13.25
2022-10-02T00:24:14.454Z,13.30
2022-10-02T00:26:50.494Z,13.53
2022-10-02T00:29:35.832Z,13.34
2022-10-02T00:32:13.609Z,13.27
2022-10-02T00:35:04.451Z,13.25
2022-10-02T00:37:50.131Z,13.21
2022-10-02T00:40:59.185Z,12.94
2022-10-02T00:43:28.610Z,12.92
2022-10-02T00:46:19.458Z,12.84
2022-10-02T00:49:11.817Z,12.80
2022-10-02T00:51:50.444Z,12.83
2022-10-02T00:54:47.628Z,12.86
2022-10-02T00:57:35.753Z,12.89
2022-10-02T01:00:17.115Z,12.86
2022-10-02T01:02:54.928Z,12.82
2022-10-02T01:05:21.705Z,12.83
2022-10-02T01:07:50.962Z,12.78
2022-10-02T01:10:17.694Z,12.85
2022-10-02T01:12:45.220Z,12.75
2022-10-02T01:15:17.282Z,12.78
2022-10-02T01:17:46.379Z,12.77
2022-10-02T01:20:21.414Z,12.86
2022-10-02T01:23:19.071Z,12.82
2022-10-02T01:25:45.682Z,12.93
2022-10-02T01:28:12.642Z,12.96
2022-10-02T01:30:44.325Z,12.88
2022-10-02T01:33:13.276Z,12.79
2022-10-02T01:35:40.515Z,12.80
2022-10-02T01:38:13.467Z,12.79
2022-10-02T01:40:41.472Z,12.80
2022-10-02T01:43:19.136Z,12.82
2022-10-02T01:46:01.067Z,12.94
2022-10-02T01:49:02.655Z,12.89
2022-10-02T01:51:29.125Z,13.02
2022-10-02T01:54:16.012Z,12.94
2022-10-02T01:56:57.884Z,12.96
2022-10-02T01:59:56.775Z,12.87
2022-10-02T02:02:42.883Z,12.90
2022-10-02T02:05:36.287Z,12.86
2022-10-02T02:08:36.881Z,13.01
2022-10-02T02:11:13.601Z,12.90
2022-10-02T02:14:01.648Z,12.94
2022-10-02T02:16:44.526Z,13.01
2022-10-02T02:19:33.256Z,13.02
2022-10-02T02:22:19.238Z,12.97
2022-10-02T02:24:56.324Z,12.95
2022-10-02T02:27:27.324Z,12.93
2022-10-02T02:30:02.772Z,12.99
2022-10-02T02:32:34.866Z,13.01
2022-10-02T02:35:07.520Z,13.01
2022-10-02T02:37:37.511Z,13.03
2022-10-02T02:40:09.266Z,13.04
2022-10-02T02:42:42.374Z,13.07
2022-10-02T02:45:18.570Z,13.18
2022-10-02T02:47:52.730Z,13.11
2022-10-02T02:50:41.390Z,13.21
2022-10-02T02:53:23.579Z,13.07
2022-10-02T02:55:55.661Z,13.12
2022-10-02T02:58:28.247Z,13.09
2022-10-02T03:00:55.639Z,13.05
2022-10-02T03:03:22.415Z,13.11
2022-10-02T03:05:53.337Z,13.08
2022-10-02T03:08:28.087Z,13.04
2022-10-02T03:11:05.463Z,13.15
2022-10-02T03:13:55.110Z,13.16
2022-10-02T03:16:58.743Z,13.20
2022-10-02T03:19:46.213Z,13.22
2022-10-02T03:22:25.800Z,13.22
2022-10-02T03:24:59.566Z,13.20
2022-10-02T03:27:37.145Z,13.26
2022-10-02T03:30:09.693Z,13.32
2022-10-02T03:32:39.247Z,13.28
2022-10-02T03:35:10.316Z,13.29
2022-10-02T03:37:37.066Z,13.23
2022-10-02T03:40:05.737Z,13.34
2022-10-02T03:42:34.828Z,13.31
2022-10-02T03:45:01.498Z,13.37
2022-10-02T03:47:28.089Z,13.26
2022-10-02T03:49:55.081Z,13.37
2022-10-02T03:52:23.561Z,13.33
2022-10-02T03:54:55.652Z,13.29
2022-10-02T03:57:24.457Z,13.37
2022-10-02T04:00:00.951Z,13.42
2022-10-02T04:02:30.466Z,13.37
2022-10-02T04:05:05.810Z,13.46
2022-10-02T04:07:40.076Z,13.35
2022-10-02T04:10:21.798Z,13.44
2022-10-02T04:12:52.259Z,13.50
2022-10-02T04:15:35.406Z,13.52
2022-10-02T04:18:16.838Z,13.56
2022-10-02T04:21:04.514Z,13.47
2022-10-02T04:23:37.325Z,13.59
2022-10-02T04:26:14.145Z,13.40
2022-10-02T04:28:46.168Z,13.49
2022-10-02T04:31:14.146Z,13.63
2022-10-02T04:33:40.770Z,13.55
2022-10-02T04:36:12.958Z,13.55
2022-10-02T04:38:45.579Z,13.57
2022-10-02T04:41:49.627Z,13.58
2022-10-02T04:44:40.002Z,13.53
2022-10-02T04:47:25.957Z,13.67
2022-10-02T04:50:06.391Z,13.58
2022-10-02T04:52:38.841Z,13.59
2022-10-02T04:55:36.017Z,13.66
2022-10-02T04:58:14.515Z,13.57
2022-10-02T05:00:54.708Z,13.71
2022-10-02T05:03:51.282Z,13.80
2022-10-02T05:06:45.635Z,13.77
2022-10-02T05:09:24.815Z,13.67
2022-10-02T05:12:00.759Z,13.66
2022-10-02T05:14:51.092Z,13.75
2022-10-02T05:17:51.095Z,13.53
2022-10-02T05:20:40.434Z,13.56
2022-10-02T05:23:39.703Z,13.52
2022-10-02T05:26:14.508Z,13.61
2022-10-02T05:28:50.025Z,13.64
2022-10-02T05:31:54.249Z,13.62
2022-10-02T05:35:04.780Z,13.50
2022-10-02T05:37:52.956Z,13.57
2022-10-02T05:40:27.234Z,13.63
2022-10-02T05:43:15.150Z,13.61
2022-10-02T05:45:52.904Z,13.54
2022-10-02T05:48:27.745Z,13.62
2022-10-02T05:51:09.018Z,13.68
2022-10-02T05:53:56.236Z,13.74
2022-10-02T05:56:37.380Z,13.68
2022-10-02T05:59:19.922Z,13.80
2022-10-02T06:01:49.397Z,13.78
2022-10-02T06:04:37.699Z,13.84
2022-10-02T06:07:08.799Z,13.80
2022-10-02T06:09:49.567Z,13.92
2022-10-02T06:12:26.656Z,13.97
2022-10-02T06:15:16.787Z,13.91
2022-10-02T06:17:50.295Z,13.98
2022-10-02T06:20:23.064Z,14.03
2022-10-02T06:23:01.701Z,14.14
2022-10-02T06:25:36.793Z,14.25
2022-10-02T06:28:19.469Z,14.20
2022-10-02T06:30:56.839Z,14.17
2022-10-02T06:33:25.197Z,14.11
2022-10-02T06:36:22.212Z,14.16
2022-10-02T06:39:13.173Z,14.25
2022-10-02T06:42:11.914Z,14.26
2022-10-02T06:44:48.888Z,14.27
2022-10-02T06:47:35.569Z,14.27
2022-10-02T06:50:43.396Z,14.25
2022-10-02T06:53:35.181Z,14.29
2022-10-02T06:56:15.675Z,14.29
2022-10-02T06:59:17.401Z,14.33
2022-10-02T07:02:11.621Z,14.41
2022-10-02T07:05:04.303Z,14.39
2022-10-02T07:07:52.032Z,14.49
2022-10-02T07:10:37.110Z,14.51
2022-10-02T07:13:30.495Z,14.51
2022-10-02T07:16:16.912Z,14.55
2022-10-02T07:19:23.136Z,14.47
2022-10-02T07:22:32.428Z,14.70
2022-10-02T07:25:19.599Z,14.71
2022-10-02T07:28:05.786Z,14.81
2022-10-02T07:31:05.989Z,14.83
2022-10-02T07:33:56.708Z,14.95
2022-10-02T07:36:30.626Z,14.89
2022-10-02T07:39:15.977Z,15.09
2022-10-02T07:42:01.654Z,14.93
2022-10-02T07:44:43.281Z,15.28
2022-10-02T07:47:37.813Z,15.11
2022-10-02T07:50:12.387Z,15.11
2022-10-02T07:53:09.938Z,15.32
2022-10-02T07:55:41.541Z,15.24
2022-10-02T07:58:18.734Z,15.19
2022-10-02T08:00:59.356Z,15.54
2022-10-02T08:03:31.982Z,15.33
2022-10-02T08:06:00.509Z,15.27
2022-10-02T08:08:41.725Z,15.40
2022-10-02T08:11:15.815Z,15.48
2022-10-02T08:13:56.316Z,15.51
2022-10-02T08:16:32.361Z,15.58
2022-10-02T08:19:06.208Z,15.67
2022-10-02T08:21:39.154Z,15.67
2022-10-02T08:24:32.481Z,15.75
2022-10-02T08:27:15.133Z,15.87
2022-10-02T08:29:53.621Z,16.09
2022-10-02T08:32:22.480Z,16.12
2022-10-02T08:34:49.136Z,16.19
2022-10-02T08:38:06.667Z,16.12
2022-10-02T08:40:48.991Z,16.23
2022-10-02T08:43:45.005Z,16.24
2022-10-02T08:46:30.253Z,16.20
2022-10-02T08:49:24.872Z,16.31
2022-10-02T08:52:03.551Z,16.47
2022-10-02T08:54:46.856Z,16.32
2022-10-02T08:57:42.601Z,16.41
2022-10-02T09:00:46.925Z,16.41
2022-10-02T09:04:10.607Z,16.65
2022-10-02T09:06:59.110Z,16.65
2022-10-02T09:09:37.845Z,16.64
2022-10-02T09:12:21.489Z,16.71
2022-10-02T09:14:56.775Z,16.79
2022-10-02T09:17:34.005Z,16.87
2022-10-02T09:20:15.424Z,16.89
2022-10-02T09:22:58.927Z,16.85
2022-10-02T09:25:55.463Z,17.08
2022-10-02T09:29:06.318Z,16.98
2022-10-02T09:32:17.366Z,16.84
2022-10-02T09:35:02.138Z,16.96
2022-10-02T09:38:05.378Z,17.06
2022-10-02T09:40:47.197Z,17.11
2022-10-02T09:43:22.790Z,17.00
2022-10-02T09:46:03.972Z,17.23
2022-10-02T09:49:17.033Z,17.18
2022-10-02T09:52:20.998Z,17.51
2022-10-02T09:55:29.301Z,17.91
2022-10-02T09:58:09.697Z,17.87
2022-10-02T10:00:55.167Z,18.16
2022-10-02T10:03:43.651Z,18.41
2022-10-02T10:06:47.605Z,18.48
2022-10-02T10:09:35.070Z,18.49
2022-10-02T10:12:10.592Z,18.58
2022-10-02T10:14:56.431Z,18.22
2022-10-02T10:17:44.900Z,18.28
2022-10-02T10:20:36.702Z,18.51
2022-10-02T10:23:36.751Z,18.55
2022-10-02T10:26:20.824Z,18.33
2022-10-02T10:29:15.016Z,18.28
2022-10-02T10:32:15.656Z,18.40
2022-10-02T10:35:06.558Z,18.25
2022-10-02T10:38:13.179Z,18.31
2022-10-02T10:41:12.653Z,18.26
2022-10-02T10:44:07.863Z,18.29
2022-10-02T10:47:18.200Z,18.45
2022-10-02T10:50:04.040Z,18.47
2022-10-02T10:52:39.875Z,18.32
2022-10-02T10:55:46.114Z,18.34
2022-10-02T10:58:24.879Z,18.33
2022-10-02T11:01:14.314Z,18.48
2022-10-02T11:03:50.976Z,18.24
2022-10-02T11:06:32.793Z,18.44
2022-10-02T11:09:37.324Z,18.29
2022-10-02T11:12:12.951Z,18.29
2022-10-02T11:15:06.349Z,18.32
2022-10-02T11:17:48.305Z,18.17
2022-10-02T11:20:36.997Z,18.22
2022-10-02T11:23:31.028Z,18.35
2022-10-02T11:26:23.791Z,18.27
2022-10-02T11:29:34.023Z,18.12
2022-10-02T11:32:42.907Z,18.18
2022-10-02T11:35:19.607Z,18.16
2022-10-02T11:38:07.396Z,18.06
2022-10-02T11:40:57.106Z,18.00
2022-10-02T11:43:32.719Z,18.26
2022-10-02T11:46:24.191Z,17.99
2022-10-02T11:49:09.277Z,18.13
2022-10-02T11:51:55.814Z,18.13
2022-10-02T11:54:49.701Z,18.04
2022-10-02T11:57:54.929Z,17.86
2022-10-02T12:00:33.055Z,17.78
2022-10-02T12:03:18.374Z,17.71
2022-10-02T12:05:53.941Z,17.80
2022-10-02T12:08:46.670Z,17.81
2022-10-02T12:11:25.845Z,17.87
2022-10-02T12:14:30.590Z,17.67
2022-10-02T12:17:44.379Z,17.50
2022-10-02T12:20:52.818Z,17.69
2022-10-02T12:24:13.795Z,17.72
2022-10-02T12:26:58.880Z,17.99
2022-10-02T12:29:40.986Z,18.06
2022-10-02T12:32:27.319Z,17.76
2022-10-02T12:35:06.078Z,17.97
2022-10-02T12:38:19.677Z,18.15
2022-10-02T12:40:58.321Z,18.07
2022-10-02T12:43:58.744Z,17.86
2022-10-02T12:47:03.610Z,18.00
2022-10-02T12:49:45.591Z,17.64
2022-10-02T12:52:40.602Z,17.79
2022-10-02T12:55:45.453Z,17.79
2022-10-02T12:58:23.615Z,17.84
2022-10-02T13:01:14.537Z,17.79
2022-10-02T13:03:47.036Z,17.86
2022-10-02T13:06:29.816Z,17.82
2022-10-02T13:09:11.572Z,17.89
2022-10-02T13:11:47.473Z,17.76
2022-10-02T13:14:43.621Z,17.53
2022-10-02T13:17:38.313Z,17.35
2022-10-02T13:20:38.891Z,17.21
2022-10-02T13:23:33.076Z,17.07
2022-10-02T13:26:19.167Z,17.19
2022-10-02T13:28:51.362Z,17.22
2022-10-02T13:31:37.008Z,17.18
2022-10-02T13:34:38.203Z,17.26
2022-10-02T13:37:17.188Z,17.13
2022-10-02T13:40:12.685Z,17.15
2022-10-02T13:42:42.395Z,16.86
2022-10-02T13:45:21.374Z,16.70
2022-10-02T13:48:05.688Z,16.53
2022-10-02T13:50:42.858Z,16.55
2022-10-02T13:53:15.081Z,16.63
2022-10-02T13:55:47.033Z,16.59
2022-10-02T13:58:35.275Z,16.73
2022-10-02T14:01:32.122Z,16.76
2022-10-02T14:04:24.814Z,16.78
2022-10-02T14:07:11.331Z,16.98
2022-10-02T14:09:44.424Z,16.99
2022-10-02T14:12:27.671Z,17.21
2022-10-02T14:15:06.494Z,17.27
2022-10-02T14:17:42.960Z,17.04
2022-10-02T14:20:28.517Z,16.43
2022-10-02T14:23:16.746Z,16.27
2022-10-02T14:26:04.946Z,16.53
2022-10-02T14:29:07.677Z,16.57
2022-10-02T14:32:05.262Z,16.30
2022-10-02T14:34:49.887Z,16.43
2022-10-02T14:37:33.990Z,16.24
2022-10-02T14:40:11.138Z,16.23
2022-10-02T14:43:06.273Z,16.26
2022-10-02T14:46:07.613Z,16.15
2022-10-02T14:49:07.783Z,15.93
2022-10-02T14:51:56.040Z,15.88
2022-10-02T14:54:44.018Z,16.09
2022-10-02T14:57:36.414Z,16.45
2022-10-02T15:00:19.631Z,16.71
2022-10-02T15:03:01.926Z,15.99
2022-10-02T15:05:45.482Z,15.83
2022-10-02T15:08:31.925Z,15.34
2022-10-02T15:11:00.418Z,15.68
2022-10-02T15:13:52.227Z,15.43
2022-10-02T15:16:44.074Z,15.46
2022-10-02T15:19:31.223Z,15.99
2022-10-02T15:22:03.062Z,15.79
2022-10-02T15:24:32.698Z,15.73
2022-10-02T15:27:11.304Z,15.90
2022-10-02T15:30:10.139Z,16.18
2022-10-02T15:33:14.631Z,16.73
2022-10-02T15:36:09.109Z,16.52
2022-10-02T15:39:14.515Z,16.31
2022-10-02T15:41:48.841Z,15.59
2022-10-02T15:44:34.284Z,15.73
2022-10-02T15:47:00.739Z,16.07
2022-10-02T15:49:56.307Z,16.37
2022-10-02T15:52:46.303Z,16.37
2022-10-02T15:55:21.721Z,16.57
2022-10-02T15:58:11.409Z,15.93
2022-10-02T16:01:02.287Z,15.58
2022-10-02T16:03:50.839Z,15.61
2022-10-02T16:06:50.651Z,15.73
2022-10-02T16:09:40.388Z,15.55
2022-10-02T16:12:20.385Z,15.81
2022-10-02T16:15:07.685Z,16.34
2022-10-02T16:18:13.757Z,16.41
2022-10-02T16:20:49.375Z,15.92
2022-10-02T16:23:37.720Z,15.31
2022-10-02T16:26:28.690Z,15.51
2022-10-02T16:29:05.180Z,15.47
2022-10-02T16:32:16.309Z,15.60
2022-10-02T16:35:03.134Z,15.84
2022-10-02T16:37:46.073Z,15.65
2022-10-02T16:40:23.312Z,15.54
2022-10-02T16:43:24.996Z,15.98
2022-10-02T16:46:09.736Z,16.35
2022-10-02T16:49:02.166Z,15.97
2022-10-02T16:51:55.046Z,16.41
2022-10-02T16:54:35.364Z,16.31
2022-10-02T16:57:23.260Z,16.19
2022-10-02T17:00:22.722Z,15.76
2022-10-02T17:03:21.342Z,15.39
2022-10-02T17:05:54.013Z,15.37
2022-10-02T17:08:44.082Z,15.59
2022-10-02T17:11:23.954Z,15.57
2022-10-02T17:14:15.126Z,15.11
2022-10-02T17:16:57.310Z,14.97
2022-10-02T17:19:45.686Z,15.56
2022-10-02T17:22:27.469Z,15.11
2022-10-02T17:25:06.604Z,14.55
2022-10-02T17:27:33.053Z,14.84
2022-10-02T17:30:20.951Z,14.50
2022-10-02T17:32:52.453Z,14.67
2022-10-02T17:35:38.898Z,14.93
2022-10-02T17:38:40.843Z,14.88
2022-10-02T17:41:32.247Z,14.90
2022-10-02T17:44:01.713Z,14.80
2022-10-02T17:47:15.324Z,15.07
2022-10-02T17:50:00.574Z,14.68
2022-10-02T17:53:10.004Z,14.65
2022-10-02T17:55:54.996Z,14.71
2022-10-02T17:58:35.476Z,14.74
2022-10-02T18:01:08.019Z,14.44
2022-10-02T18:03:49.742Z,15.32
2022-10-02T18:06:33.670Z,14.82
2022-10-02T18:09:03.040Z,15.24
2022-10-02T18:12:05.043Z,15.39
2022-10-02T18:14:57.324Z,15.25
2022-10-02T18:17:36.818Z,15.49
2022-10-02T18:20:36.286Z,15.49
2022-10-02T18:23:43.429Z,15.60
2022-10-02T18:26:28.568Z,15.55
2022-10-02T18:29:18.584Z,15.45
2022-10-02T18:31:58.575Z,15.35
2022-10-02T18:34:46.420Z,15.62
2022-10-02T18:37:23.304Z,15.50
2022-10-02T18:40:17.278Z,15.55
2022-10-02T18:43:14.028Z,15.73
2022-10-02T18:46:04.967Z,15.80
2022-10-02T18:48:53.851Z,15.62
2022-10-02T18:52:06.375Z,15.27
2022-10-02T18:55:02.990Z,15.32
2022-10-02T18:58:00.201Z,15.21
2022-10-02T19:00:37.665Z,15.21
2022-10-02T19:03:19.288Z,15.58
2022-10-02T19:05:55.543Z,15.52
2022-10-02T19:08:54.575Z,15.67
2022-10-02T19:11:28.061Z,15.37
2022-10-02T19:13:54.926Z,15.51
2022-10-02T19:16:25.761Z,15.74
2022-10-02T19:19:21.285Z,15.37
2022-10-02T19:21:48.603Z,15.12
2022-10-02T19:24:19.886Z,15.25
2022-10-02T19:26:50.811Z,15.73
2022-10-02T19:29:48.638Z,15.53
2022-10-02T19:32:27.317Z,15.20
2022-10-02T19:35:02.291Z,15.17
2022-10-02T19:37:31.502Z,15.17
2022-10-02T19:40:03.300Z,15.10
2022-10-02T19:42:37.440Z,15.08
2022-10-02T19:45:24.437Z,15.18
2022-10-02T19:47:57.117Z,15.16
2022-10-02T19:50:39.760Z,15.68
2022-10-02T19:53:26.738Z,15.70
2022-10-02T19:55:56.869Z,15.50
2022-10-02T19:58:39.507Z,14.76
2022-10-02T20:01:14.637Z,14.85
2022-10-02T20:03:42.681Z,14.88
2022-10-02T20:06:19.278Z,14.97
2022-10-02T20:08:51.319Z,15.19
2022-10-02T20:11:24.334Z,14.97
2022-10-02T20:13:57.702Z,15.13
2022-10-02T20:16:44.702Z,15.20
2022-10-02T20:19:21.027Z,15.18
2022-10-02T20:21:52.207Z,15.27
2022-10-02T20:24:32.468Z,15.33
2022-10-02T20:27:06.917Z,15.44
2022-10-02T20:29:46.837Z,15.18
2022-10-02T20:32:21.979Z,15.14
2022-10-02T20:34:59.103Z,15.07
2022-10-02T20:37:30.076Z,15.33
2022-10-02T20:40:03.331Z,15.36
2022-10-02T20:42:51.216Z,15.58
2022-10-02T20:45:18.107Z,15.52
2022-10-02T20:47:59.568Z,15.45
2022-10-02T20:50:46.728Z,15.45
2022-10-02T20:53:50.593Z,15.46
2022-10-02T20:56:53.791Z,15.31
2022-10-02T21:00:17.218Z,15.02
2022-10-02T21:03:20.065Z,15.23
2022-10-02T21:05:52.618Z,15.08
2022-10-02T21:08:48.595Z,15.07
2022-10-02T21:11:42.184Z,15.03
2022-10-02T21:14:33.721Z,15.13
2022-10-02T21:17:19.140Z,14.93
2022-10-02T21:20:04.415Z,14.80
2022-10-02T21:23:00.502Z,15.02
2022-10-02T21:25:54.903Z,15.08
2022-10-02T21:29:12.776Z,15.22
2022-10-02T21:32:00.283Z,15.20
2022-10-02T21:34:57.546Z,15.24
2022-10-02T21:37:35.542Z,15.31
2022-10-02T21:40:42.487Z,15.06
2022-10-02T21:43:17.595Z,15.12
2022-10-02T21:46:05.639Z,15.34
2022-10-02T21:49:09.975Z,15.29
2022-10-02T21:51:51.779Z,15.21
2022-10-02T21:54:56.875Z,15.31
2022-10-02T21:57:39.972Z,15.26
2022-10-02T22:00:14.229Z,15.20
2022-10-02T22:03:05.818Z,15.06
2022-10-02T22:05:32.269Z,14.93
2022-10-02T22:08:18.092Z,14.84
2022-10-02T22:11:04.278Z,15.15
2022-10-02T22:13:39.044Z,14.98
2022-10-02T22:16:22.023Z,14.87
2022-10-02T22:19:04.553Z,14.97
2022-10-02T22:21:48.376Z,15.10
2022-10-02T22:24:40.714Z,15.02
2022-10-02T22:27:16.374Z,15.06
2022-10-02T22:29:49.204Z,14.82
2022-10-02T22:32:59.144Z,14.83
2022-10-02T22:35:41.281Z,15.03
2022-10-02T22:38:16.744Z,15.01
2022-10-02T22:40:51.141Z,14.51
2022-10-02T22:43:31.866Z,14.50
2022-10-02T22:46:24.161Z,14.73
2022-10-02T22:49:14.604Z,14.66
2022-10-02T22:51:56.784Z,14.49
2022-10-02T22:54:37.755Z,14.66
2022-10-02T22:57:12.982Z,14.52
2022-10-02T22:59:54.894Z,14.73
2022-10-02T23:02:47.809Z,14.64
2022-10-02T23:05:21.929Z,14.59
2022-10-02T23:07:54.896Z,14.46
2022-10-02T23:10:28.460Z,14.53
2022-10-02T23:13:04.760Z,14.44
2022-10-02T23:15:45.576Z,14.58
2022-10-02T23:18:34.548Z,14.56
2022-10-02T23:21:13.241Z,14.76
2022-10-02T23:23:43.351Z,14.43
2022-10-02T23:26:21.279Z,14.55
2022-10-02T23:29:05.554Z,14.88
2022-10-02T23:32:05.795Z,14.55
2022-10-02T23:34:43.195Z,14.29
2022-10-02T23:37:20.214Z,14.48
2022-10-02T23:39:58.439Z,14.50
2022-10-02T23:42:50.681Z,14.17
2022-10-02T23:45:26.559Z,14.24
2022-10-02T23:48:05.933Z,14.72
2022-10-02T23:51:04.237Z,14.17
2022-10-02T23:54:12.928Z,14.41
2022-10-02T23:57:32.895Z,14.29
